createdAt,value
2019-05-18T00:01:20.598Z,45.89
2019-05-18T00:03:50.881Z,46.21
2019-05-18T00:06:20.067Z,46.37
2019-05-18T00:08:49.174Z,46.52
2019-05-18T00:11:18.327Z,46.49
2019-05-18T00:13:47.553Z,46.49
2019-05-18T00:16:17.236Z,46.63
2019-05-18T00:18:46.756Z,47.31
2019-05-18T00:21:15.741Z,47.17
2019-05-18T00:23:44.930Z,47.68
2019-05-18T00:26:14.203Z,49.47
2019-05-18T00:28:43.409Z,48.30
2019-05-18T00:31:14.546Z,48.30
2019-05-18T00:33:44.418Z,47.44
2019-05-18T00:36:13.739Z,48.79
2019-05-18T00:38:42.892Z,48.19
2019-05-18T00:41:12.448Z,47.76
2019-05-18T00:43:41.514Z,49.37
2019-05-18T00:46:10.659Z,48.07
2019-05-18T00:48:39.706Z,48.50
2019-05-18T00:51:10.048Z,50.29
2019-05-18T00:53:39.761Z,49.71
2019-05-18T00:56:09.136Z,50.31
2019-05-18T00:58:38.844Z,50.31
2019-05-18T01:01:08.093Z,48.60
2019-05-18T01:03:37.151Z,48.27
2019-05-18T01:06:06.751Z,48.27
2019-05-18T01:08:35.964Z,50.77
2019-05-18T01:11:05.460Z,49.46
2019-05-18T01:13:35.000Z,49.46
2019-05-18T01:16:04.590Z,51.61
2019-05-18T01:18:33.882Z,51.61
2019-05-18T01:21:03.322Z,50.47
2019-05-18T01:23:33.147Z,50.79
2019-05-18T01:26:02.803Z,51.04
2019-05-18T01:28:32.749Z,50.58
2019-05-18T01:31:02.837Z,51.10
2019-05-18T01:33:32.491Z,51.23
2019-05-18T01:36:01.983Z,52.13
2019-05-18T01:38:31.124Z,52.13
2019-05-18T01:41:00.270Z,51.32
2019-05-18T01:43:30.163Z,51.32
2019-05-18T01:45:59.569Z,51.84
2019-05-18T01:48:28.650Z,51.84
2019-05-18T01:50:57.987Z,51.39
2019-05-18T01:53:27.652Z,51.39
2019-05-18T01:55:57.182Z,51.56
2019-05-18T01:58:27.193Z,51.67
2019-05-18T02:00:56.925Z,52.40
2019-05-18T02:03:26.270Z,51.67
2019-05-18T02:05:55.335Z,51.67
2019-05-18T02:08:24.479Z,52.12
2019-05-18T02:10:54.028Z,52.12
2019-05-18T02:13:23.478Z,53.16
2019-05-18T02:15:52.936Z,52.59
2019-05-18T02:18:28.997Z,52.21
2019-05-18T02:20:54.346Z,53.13
2019-05-18T02:23:23.854Z,53.13
2019-05-18T02:25:53.055Z,53.08
2019-05-18T02:28:22.406Z,52.50
2019-05-18T02:30:51.401Z,52.57
2019-05-18T02:33:21.237Z,53.27
2019-05-18T02:35:50.424Z,53.27
2019-05-18T02:38:20.038Z,52.93
2019-05-18T02:40:49.295Z,52.53
2019-05-18T02:43:19.121Z,52.53
2019-05-18T02:45:48.559Z,52.09
2019-05-18T02:48:18.158Z,52.63
2019-05-18T02:50:47.451Z,52.33
2019-05-18T02:53:16.646Z,52.24
2019-05-18T02:55:46.809Z,52.24
2019-05-18T02:58:16.386Z,51.42
2019-05-18T03:00:45.849Z,50.86
2019-05-18T03:03:15.320Z,50.96
2019-05-18T03:05:45.103Z,50.82
2019-05-18T03:08:14.413Z,50.44
2019-05-18T03:10:43.569Z,49.72
2019-05-18T03:13:12.907Z,49.03
2019-05-18T03:15:42.128Z,48.59
2019-05-18T03:18:11.289Z,48.59
2019-05-18T03:20:40.466Z,49.28
2019-05-18T03:23:10.175Z,48.48
2019-05-18T03:25:39.506Z,48.41
2019-05-18T03:28:08.486Z,48.77
2019-05-18T03:30:37.652Z,48.35
2019-05-18T03:33:06.809Z,48.38
2019-05-18T03:35:36.130Z,48.38
2019-05-18T03:38:05.145Z,48.40
2019-05-18T03:40:34.201Z,48.28
2019-05-18T03:43:03.488Z,47.96
2019-05-18T03:45:32.709Z,48.39
2019-05-18T03:48:02.053Z,48.39
2019-05-18T03:50:31.718Z,47.47
2019-05-18T03:53:01.661Z,47.45
2019-05-18T03:55:30.857Z,48.19
2019-05-18T03:58:00.076Z,47.71
2019-05-18T04:00:30.026Z,47.40
2019-05-18T04:02:59.705Z,46.92
2019-05-18T04:05:29.161Z,47.06
2019-05-18T04:07:58.910Z,47.37
2019-05-18T04:10:29.349Z,47.77
2019-05-18T04:12:58.939Z,47.05
2019-05-18T04:15:28.225Z,47.20
2019-05-18T04:17:58.436Z,46.96
2019-05-18T04:20:27.619Z,46.83
2019-05-18T04:22:57.048Z,46.78
2019-05-18T04:25:26.148Z,46.60
2019-05-18T04:27:55.372Z,46.38
2019-05-18T04:30:24.596Z,46.21
2019-05-18T04:32:53.650Z,45.71
2019-05-18T04:35:22.982Z,45.47
2019-05-18T04:37:52.343Z,44.76
2019-05-18T04:40:21.480Z,45.07
2019-05-18T04:42:52.609Z,45.21
2019-05-18T04:45:22.505Z,44.09
2019-05-18T04:47:51.660Z,44.11
2019-05-18T04:50:20.838Z,44.25
2019-05-18T04:52:49.917Z,43.80
2019-05-18T04:55:18.964Z,43.56
2019-05-18T04:57:48.256Z,43.44
2019-05-18T05:00:17.322Z,43.10
2019-05-18T05:02:47.244Z,43.12
2019-05-18T05:05:16.274Z,43.01
2019-05-18T05:07:45.265Z,43.14
2019-05-18T05:10:14.612Z,42.68
2019-05-18T05:12:44.885Z,43.17
2019-05-18T05:15:14.607Z,43.33
2019-05-18T05:17:43.584Z,42.53
2019-05-18T05:20:19.897Z,42.24
2019-05-18T05:22:43.767Z,42.13
2019-05-18T05:25:12.965Z,42.08
2019-05-18T05:27:42.186Z,42.29
2019-05-18T05:30:11.716Z,42.46
2019-05-18T05:32:41.033Z,42.49
2019-05-18T05:35:10.231Z,42.99
2019-05-18T05:37:39.466Z,43.13
2019-05-18T05:40:09.385Z,43.00
2019-05-18T05:42:38.621Z,42.67
2019-05-18T05:45:08.295Z,42.45
2019-05-18T05:47:37.330Z,42.77
2019-05-18T05:50:07.037Z,42.94
2019-05-18T05:52:37.418Z,42.52
2019-05-18T05:55:07.674Z,42.66
2019-05-18T05:57:36.774Z,42.59
2019-05-18T06:00:06.452Z,43.20
2019-05-18T06:02:35.912Z,41.66
2019-05-18T06:05:05.375Z,41.08
2019-05-18T06:07:34.924Z,40.25
2019-05-18T06:10:05.957Z,40.57
2019-05-18T06:12:35.437Z,40.97
2019-05-18T06:15:05.467Z,41.23
2019-05-18T06:17:35.143Z,40.23
2019-05-18T06:20:04.548Z,40.09
2019-05-18T06:22:34.871Z,40.39
2019-05-18T06:25:05.299Z,39.96
2019-05-18T06:27:34.931Z,39.01
2019-05-18T06:30:04.147Z,39.37
2019-05-18T06:32:33.274Z,38.90
2019-05-18T06:35:02.818Z,39.01
2019-05-18T06:37:31.803Z,39.04
2019-05-18T06:40:02.264Z,38.37
2019-05-18T06:42:31.593Z,37.82
2019-05-18T06:45:01.120Z,37.45
2019-05-18T06:47:30.333Z,37.42
2019-05-18T06:49:59.873Z,36.90
2019-05-18T06:52:29.084Z,36.63
2019-05-18T06:54:58.209Z,36.67
2019-05-18T06:57:27.773Z,36.68
2019-05-18T06:59:56.994Z,36.45
2019-05-18T07:02:26.297Z,35.66
2019-05-18T07:04:55.443Z,35.78
2019-05-18T07:07:24.499Z,35.05
2019-05-18T07:09:53.946Z,35.49
2019-05-18T07:12:23.317Z,34.56
2019-05-18T07:14:52.767Z,34.21
2019-05-18T07:17:21.777Z,33.99
2019-05-18T07:19:50.985Z,34.57
2019-05-18T07:22:20.068Z,34.63
2019-05-18T07:24:49.303Z,34.67
2019-05-18T07:27:18.919Z,34.44
2019-05-18T07:29:48.223Z,34.27
2019-05-18T07:32:17.822Z,34.01
2019-05-18T07:34:49.635Z,33.03
2019-05-18T07:37:18.918Z,33.47
2019-05-18T07:39:48.609Z,33.92
2019-05-18T07:42:17.792Z,33.02
2019-05-18T07:44:46.716Z,32.51
2019-05-18T07:47:15.769Z,32.82
2019-05-18T07:49:44.889Z,33.14
2019-05-18T07:52:17.127Z,33.27
2019-05-18T07:54:45.198Z,32.97
2019-05-18T07:57:14.390Z,31.85
2019-05-18T07:59:43.712Z,32.02
2019-05-18T08:02:12.941Z,32.25
2019-05-18T08:04:42.253Z,31.97
2019-05-18T08:07:11.827Z,31.86
2019-05-18T08:09:40.972Z,32.04
2019-05-18T08:12:10.287Z,32.04
2019-05-18T08:14:40.775Z,32.21
2019-05-18T08:17:10.086Z,32.09
2019-05-18T08:19:39.285Z,32.43
2019-05-18T08:22:08.753Z,32.29
2019-05-18T08:24:37.993Z,32.13
2019-05-18T08:27:07.871Z,31.01
2019-05-18T08:29:37.545Z,31.39
2019-05-18T08:32:06.737Z,31.90
2019-05-18T08:34:36.008Z,31.88
2019-05-18T08:37:05.187Z,32.04
2019-05-18T08:39:34.389Z,31.74
2019-05-18T08:42:03.418Z,32.49
2019-05-18T08:44:32.780Z,31.91
2019-05-18T08:47:01.894Z,32.10
2019-05-18T08:49:31.665Z,32.41
2019-05-18T08:52:08.374Z,31.90
2019-05-18T08:54:32.865Z,32.34
2019-05-18T08:57:01.892Z,32.86
2019-05-18T08:59:31.120Z,32.69
2019-05-18T09:02:00.491Z,32.19
2019-05-18T09:04:29.793Z,32.09
2019-05-18T09:06:59.022Z,32.49
2019-05-18T09:09:29.260Z,31.85
2019-05-18T09:11:58.614Z,31.93
2019-05-18T09:14:27.804Z,31.91
2019-05-18T09:16:56.992Z,31.52
2019-05-18T09:19:26.023Z,31.91
2019-05-18T09:21:55.249Z,31.87
2019-05-18T09:24:24.506Z,31.53
2019-05-18T09:26:54.029Z,32.40
2019-05-18T09:29:24.032Z,32.18
2019-05-18T09:31:54.000Z,32.66
2019-05-18T09:34:23.147Z,32.51
2019-05-18T09:36:52.550Z,31.97
2019-05-18T09:39:22.895Z,32.22
2019-05-18T09:41:52.507Z,32.34
2019-05-18T09:44:22.058Z,31.55
2019-05-18T09:46:51.303Z,31.14
2019-05-18T09:49:21.248Z,32.42
2019-05-18T09:51:50.872Z,31.93
2019-05-18T09:54:19.959Z,32.23
2019-05-18T09:56:49.187Z,32.37
2019-05-18T09:59:18.400Z,33.02
2019-05-18T10:01:47.578Z,33.00
2019-05-18T10:04:16.925Z,33.11
2019-05-18T10:06:46.074Z,32.04
2019-05-18T10:09:15.405Z,31.97
2019-05-18T10:11:44.640Z,32.41
2019-05-18T10:14:13.755Z,32.61
2019-05-18T10:16:43.034Z,32.89
2019-05-18T10:19:13.235Z,32.15
2019-05-18T10:21:42.373Z,31.94
2019-05-18T10:24:11.802Z,31.89
2019-05-18T10:26:40.903Z,31.72
2019-05-18T10:29:10.137Z,32.45
2019-05-18T10:31:39.562Z,31.93
2019-05-18T10:34:09.157Z,31.41
2019-05-18T10:36:38.993Z,31.16
2019-05-18T10:39:08.919Z,30.85
2019-05-18T10:41:39.746Z,31.42
2019-05-18T10:44:09.038Z,31.56
2019-05-18T10:46:38.192Z,32.02
2019-05-18T10:49:07.391Z,31.85
2019-05-18T10:51:36.579Z,30.97
2019-05-18T10:54:05.884Z,29.58
2019-05-18T10:56:36.023Z,30.19
2019-05-18T10:59:08.422Z,30.37
2019-05-18T11:01:38.111Z,30.80
2019-05-18T11:04:08.086Z,30.04
2019-05-18T11:06:37.381Z,30.27
2019-05-18T11:09:08.046Z,29.96
2019-05-18T11:11:37.431Z,29.76
2019-05-18T11:14:06.502Z,28.79
2019-05-18T11:16:35.885Z,28.85
2019-05-18T11:19:05.714Z,27.93
2019-05-18T11:21:35.506Z,26.27
2019-05-18T11:24:04.938Z,24.04
2019-05-18T11:26:34.500Z,22.65
2019-05-18T11:29:04.860Z,21.44
2019-05-18T11:31:34.106Z,22.05
2019-05-18T11:34:03.283Z,22.12
2019-05-18T11:36:33.095Z,23.22
2019-05-18T11:39:02.290Z,24.45
2019-05-18T11:41:32.850Z,24.48
2019-05-18T11:44:04.203Z,24.36
2019-05-18T11:46:33.298Z,23.81
2019-05-18T11:49:02.930Z,21.00
2019-05-18T11:51:32.116Z,19.00
2019-05-18T11:54:01.330Z,17.69
2019-05-18T11:56:30.535Z,16.21
2019-05-18T11:58:59.696Z,15.55
2019-05-18T12:01:28.712Z,14.86
2019-05-18T12:03:57.699Z,14.15
2019-05-18T12:06:26.541Z,13.28
2019-05-18T12:08:58.586Z,12.31
2019-05-18T12:11:26.820Z,11.55
2019-05-18T12:13:56.015Z,10.74
2019-05-18T12:16:25.809Z,10.41
2019-05-18T12:18:57.684Z,10.22
2019-05-18T12:21:26.288Z,9.92
2019-05-18T12:23:55.260Z,9.88
2019-05-18T12:26:24.108Z,9.79
2019-05-18T12:28:53.138Z,9.67
2019-05-18T12:31:22.079Z,9.32
2019-05-18T12:33:51.192Z,9.01
2019-05-18T12:36:20.526Z,8.68
2019-05-18T12:38:49.669Z,8.46
2019-05-18T12:41:21.594Z,7.95
2019-05-18T12:43:51.215Z,7.84
2019-05-18T12:46:20.559Z,7.98
2019-05-18T12:48:49.638Z,8.19
2019-05-18T12:51:18.681Z,8.17
2019-05-18T12:53:47.484Z,7.89
2019-05-18T12:56:19.579Z,7.97
2019-05-18T12:58:49.170Z,8.30
2019-05-18T13:01:18.098Z,8.33
2019-05-18T13:03:47.363Z,8.16
2019-05-18T13:06:16.590Z,8.24
2019-05-18T13:08:45.311Z,7.88
2019-05-18T13:11:14.579Z,8.04
2019-05-18T13:13:44.422Z,8.09
2019-05-18T13:16:13.238Z,7.86
2019-05-18T13:18:42.540Z,7.32
2019-05-18T13:21:12.136Z,7.55
2019-05-18T13:23:41.621Z,7.36
2019-05-18T13:26:11.192Z,7.40
2019-05-18T13:28:40.780Z,7.35
2019-05-18T13:31:09.665Z,7.75
2019-05-18T13:33:41.544Z,7.44
2019-05-18T13:36:12.028Z,7.80
2019-05-18T13:38:41.444Z,7.96
2019-05-18T13:41:11.192Z,8.10
2019-05-18T13:43:40.456Z,7.98
2019-05-18T13:46:09.873Z,8.27
2019-05-18T13:48:39.637Z,8.26
2019-05-18T13:51:08.526Z,8.32
2019-05-18T13:53:37.595Z,8.40
2019-05-18T13:56:06.591Z,8.60
2019-05-18T13:58:35.734Z,8.44
2019-05-18T14:01:04.698Z,8.17
2019-05-18T14:03:33.673Z,8.12
2019-05-18T14:06:02.538Z,8.32
2019-05-18T14:08:31.336Z,8.37
2019-05-18T14:11:00.258Z,8.01
2019-05-18T14:13:29.357Z,8.06
2019-05-18T14:15:58.423Z,8.42
2019-05-18T14:18:27.711Z,8.42
2019-05-18T14:20:56.524Z,8.47
2019-05-18T14:23:25.796Z,8.38
2019-05-18T14:25:54.857Z,8.55
2019-05-18T14:28:23.873Z,8.76
2019-05-18T14:30:52.775Z,8.79
2019-05-18T14:33:21.947Z,8.70
2019-05-18T14:35:50.620Z,8.78
2019-05-18T14:38:19.729Z,8.91
2019-05-18T14:40:48.945Z,8.87
2019-05-18T14:43:18.250Z,8.77
2019-05-18T14:45:49.143Z,8.84
2019-05-18T14:48:17.973Z,9.03
2019-05-18T14:50:46.778Z,8.86
2019-05-18T14:53:15.631Z,9.04
2019-05-18T14:55:44.452Z,9.18
2019-05-18T14:58:16.500Z,9.33
2019-05-18T15:00:50.645Z,9.35
2019-05-18T15:03:19.610Z,9.33
2019-05-18T15:05:48.837Z,9.28
2019-05-18T15:08:17.598Z,9.50
2019-05-18T15:10:46.436Z,9.61
2019-05-18T15:13:15.416Z,9.66
2019-05-18T15:15:44.672Z,9.69
2019-05-18T15:18:13.461Z,9.82
2019-05-18T15:20:42.332Z,10.82
2019-05-18T15:23:14.351Z,12.69
2019-05-18T15:25:50.719Z,14.42
2019-05-18T15:28:14.197Z,16.17
2019-05-18T15:30:43.329Z,17.79
2019-05-18T15:33:13.042Z,19.29
2019-05-18T15:35:42.272Z,20.05
2019-05-18T15:38:11.792Z,21.13
2019-05-18T15:40:41.299Z,21.86
2019-05-18T15:43:10.628Z,22.91
2019-05-18T15:45:39.999Z,23.00
2019-05-18T15:48:09.145Z,23.84
2019-05-18T15:50:38.274Z,24.39
2019-05-18T15:53:07.376Z,24.74
2019-05-18T15:55:36.537Z,24.39
2019-05-18T15:58:06.296Z,25.14
2019-05-18T16:00:35.550Z,25.28
2019-05-18T16:03:04.668Z,24.73
2019-05-18T16:05:34.097Z,25.52
2019-05-18T16:08:03.303Z,25.43
2019-05-18T16:10:32.914Z,25.73
2019-05-18T16:13:02.288Z,26.11
2019-05-18T16:15:32.286Z,25.94
2019-05-18T16:18:01.234Z,26.45
2019-05-18T16:20:30.424Z,26.71
2019-05-18T16:22:59.770Z,26.22
2019-05-18T16:25:28.929Z,26.67
2019-05-18T16:27:58.312Z,26.55
2019-05-18T16:30:27.704Z,27.43
2019-05-18T16:32:56.991Z,26.98
2019-05-18T16:35:26.234Z,27.29
2019-05-18T16:37:55.435Z,27.36
2019-05-18T16:40:25.328Z,27.70
2019-05-18T16:42:54.574Z,27.90
2019-05-18T16:45:24.409Z,28.37
2019-05-18T16:47:54.005Z,28.46
2019-05-18T16:50:23.109Z,28.76
2019-05-18T16:52:52.651Z,28.59
2019-05-18T16:55:22.323Z,28.80
2019-05-18T16:57:52.065Z,28.70
2019-05-18T17:00:21.477Z,29.18
2019-05-18T17:02:50.928Z,28.92
2019-05-18T17:05:21.765Z,28.92
2019-05-18T17:07:51.218Z,29.49
2019-05-18T17:10:21.507Z,29.74
2019-05-18T17:12:50.713Z,29.65
2019-05-18T17:15:20.339Z,29.80
2019-05-18T17:17:49.626Z,30.20
2019-05-18T17:20:19.196Z,30.43
2019-05-18T17:22:48.412Z,30.40
2019-05-18T17:25:17.648Z,30.27
2019-05-18T17:27:50.076Z,30.79
2019-05-18T17:30:19.447Z,30.77
2019-05-18T17:32:48.886Z,30.99
2019-05-18T17:35:18.233Z,31.31
2019-05-18T17:37:48.088Z,31.31
2019-05-18T17:40:17.820Z,31.46
2019-05-18T17:42:47.324Z,31.78
2019-05-18T17:45:17.093Z,32.03
2019-05-18T17:47:46.430Z,32.23
2019-05-18T17:50:15.932Z,32.53
2019-05-18T17:52:45.384Z,32.84
2019-05-18T17:55:17.659Z,32.94
2019-05-18T17:57:47.754Z,33.29
2019-05-18T18:00:17.401Z,33.47
2019-05-18T18:02:48.236Z,33.88
2019-05-18T18:05:18.188Z,34.46
2019-05-18T18:07:47.734Z,34.31
2019-05-18T18:10:19.558Z,34.95
2019-05-18T18:12:48.899Z,35.27
2019-05-18T18:15:18.327Z,35.25
2019-05-18T18:17:47.800Z,35.10
2019-05-18T18:20:17.273Z,35.85
2019-05-18T18:22:46.579Z,36.13
2019-05-18T18:25:15.920Z,35.70
2019-05-18T18:27:44.955Z,35.82
2019-05-18T18:30:14.643Z,36.19
2019-05-18T18:32:44.449Z,36.38
2019-05-18T18:35:13.788Z,36.69
2019-05-18T18:37:43.978Z,36.67
2019-05-18T18:40:13.341Z,36.83
2019-05-18T18:42:45.461Z,37.49
2019-05-18T18:45:15.086Z,37.79
2019-05-18T18:47:44.107Z,37.67
2019-05-18T18:50:13.196Z,37.25
2019-05-18T18:52:42.571Z,38.02
2019-05-18T18:55:15.023Z,38.03
2019-05-18T18:57:44.477Z,38.13
2019-05-18T19:00:14.379Z,37.95
2019-05-18T19:02:44.462Z,38.08
2019-05-18T19:05:13.943Z,37.96
2019-05-18T19:07:43.141Z,37.96
2019-05-18T19:10:12.557Z,37.46
2019-05-18T19:12:42.755Z,37.98
2019-05-18T19:15:12.103Z,37.38
2019-05-18T19:17:41.410Z,37.98
2019-05-18T19:20:11.712Z,37.81
2019-05-18T19:22:41.042Z,38.22
2019-05-18T19:25:10.910Z,37.87
2019-05-18T19:27:53.753Z,38.22
2019-05-18T19:30:12.426Z,38.68
2019-05-18T19:32:42.185Z,39.01
2019-05-18T19:35:13.597Z,38.83
2019-05-18T19:37:42.741Z,39.26
2019-05-18T19:40:12.224Z,38.29
2019-05-18T19:42:41.344Z,39.39
2019-05-18T19:45:11.986Z,39.63
2019-05-18T19:47:41.366Z,39.85
2019-05-18T19:50:11.523Z,40.13
2019-05-18T19:52:40.996Z,40.53
2019-05-18T19:55:10.390Z,41.16
2019-05-18T19:57:39.587Z,40.62
2019-05-18T20:00:09.772Z,41.00
2019-05-18T20:02:39.256Z,40.16
2019-05-18T20:05:11.594Z,40.18
2019-05-18T20:07:40.783Z,42.78
2019-05-18T20:10:10.326Z,40.61
2019-05-18T20:12:40.180Z,41.21
2019-05-18T20:15:10.075Z,40.45
2019-05-18T20:17:39.517Z,41.16
2019-05-18T20:20:10.152Z,41.88
2019-05-18T20:22:39.466Z,42.06
2019-05-18T20:25:10.673Z,42.70
2019-05-18T20:27:40.318Z,42.18
2019-05-18T20:30:10.616Z,42.44
2019-05-18T20:32:39.879Z,42.78
2019-05-18T20:35:10.248Z,43.87
2019-05-18T20:37:39.281Z,42.89
2019-05-18T20:40:08.863Z,43.96
2019-05-18T20:42:38.426Z,43.84
2019-05-18T20:45:07.641Z,42.13
2019-05-18T20:47:37.175Z,42.77
2019-05-18T20:50:06.875Z,42.88
2019-05-18T20:52:36.446Z,42.57
2019-05-18T20:55:05.836Z,43.02
2019-05-18T20:57:35.067Z,45.57
2019-05-18T21:00:04.297Z,44.21
2019-05-18T21:02:35.428Z,44.28
2019-05-18T21:05:04.778Z,44.81
2019-05-18T21:07:35.069Z,44.44
2019-05-18T21:10:04.630Z,44.78
2019-05-18T21:12:34.147Z,47.71
2019-05-18T21:15:04.479Z,44.20
2019-05-18T21:17:33.581Z,44.51
2019-05-18T21:20:02.867Z,45.28
2019-05-18T21:22:32.429Z,44.95
2019-05-18T21:25:01.905Z,44.28
2019-05-18T21:27:33.487Z,44.45
2019-05-18T21:30:03.183Z,43.88
2019-05-18T21:32:32.276Z,43.34
2019-05-18T21:35:01.275Z,44.13
2019-05-18T21:37:30.488Z,43.44
2019-05-18T21:39:59.721Z,43.89
2019-05-18T21:42:29.454Z,44.24
2019-05-18T21:44:59.098Z,43.48
2019-05-18T21:47:28.476Z,43.61
2019-05-18T21:49:57.673Z,43.54
2019-05-18T21:52:26.926Z,42.59
2019-05-18T21:54:56.282Z,42.67
2019-05-18T21:57:26.572Z,42.96
2019-05-18T21:59:55.800Z,42.37
2019-05-18T22:02:24.742Z,42.39
2019-05-18T22:04:53.732Z,41.92
2019-05-18T22:07:22.852Z,42.03
2019-05-18T22:09:53.778Z,42.10
2019-05-18T22:12:23.299Z,42.25
2019-05-18T22:14:52.458Z,42.36
2019-05-18T22:17:21.613Z,42.19
2019-05-18T22:19:51.167Z,42.59
2019-05-18T22:22:20.530Z,42.79
2019-05-18T22:24:49.721Z,42.95
2019-05-18T22:27:18.801Z,43.51
2019-05-18T22:29:48.621Z,43.14
2019-05-18T22:32:18.082Z,43.52
2019-05-18T22:34:47.717Z,43.92
2019-05-18T22:37:16.818Z,43.99
2019-05-18T22:39:46.002Z,44.04
2019-05-18T22:42:15.367Z,43.71
2019-05-18T22:44:45.435Z,43.62
2019-05-18T22:47:15.006Z,43.80
2019-05-18T22:49:45.454Z,43.57
2019-05-18T22:52:15.218Z,43.96
2019-05-18T22:54:45.094Z,43.70
2019-05-18T22:57:14.248Z,44.36
2019-05-18T22:59:43.573Z,44.90
2019-05-18T23:02:13.230Z,44.40
2019-05-18T23:04:42.425Z,44.38
2019-05-18T23:07:11.896Z,44.63
2019-05-18T23:09:41.152Z,44.84
2019-05-18T23:12:10.396Z,44.88
2019-05-18T23:14:39.813Z,45.49
2019-05-18T23:17:08.991Z,45.07
2019-05-18T23:19:37.971Z,45.95
2019-05-18T23:22:08.659Z,46.63
2019-05-18T23:24:39.335Z,46.65
2019-05-18T23:27:09.936Z,46.21
2019-05-18T23:29:39.169Z,46.89
2019-05-18T23:32:08.534Z,47.44
2019-05-18T23:34:37.653Z,48.39
2019-05-18T23:37:07.091Z,48.19
2019-05-18T23:39:36.067Z,47.51
2019-05-18T23:42:05.605Z,47.42
2019-05-18T23:44:34.783Z,48.06
2019-05-18T23:47:03.914Z,48.48
2019-05-18T23:49:33.232Z,48.52
2019-05-18T23:52:02.626Z,48.63
2019-05-18T23:54:32.019Z,48.96
2019-05-18T23:57:00.959Z,49.03
2019-05-18T23:59:29.921Z,49.02
